CheckWX is a tool to help pilots better visualize weather data.  It is not intended as a substitute for an official pre-flight weather briefing.

01:34:58 UTC

SAWE TAF
Hermes Quijada International Airport
Rio Grande, Argentina
TAF SAWE 232300Z 2400/2424 18015KT 9999 SCT020 BKN080 TX08/2419Z TN03/2410Z PROB40 TEMPO 2400/2406 20015G25KT BECMG 2409/2411 23015KT -SHRA SCT015 BKN020 OVC050 BECMG 2415/2417 18010KT -RA OVC015 PROB40 TEMPO 2416/2420 5000 RA BECMG 2423/2424 NSW SCT020

Feb-24@
00:00 UTC

Feb-24 @ 00:00 UTC

Feb-24@
09:00 UTC

Feb-24 @ 09:00 UTC

TAF SAWE 232300Z 2400/2424 18015KT 9999 SCT020 BKN080 TX08/2419Z TN03/2410Z
Wind
  • 180° at 15 KTS
Cloud Levels
  • Scattered at 2,000' AGL
  • Broken at 8,000' AGL

Feb-24@
00:00 UTC

Feb-24 @ 00:00 UTC

Feb-24@
06:00 UTC

Feb-24 @ 06:00 UTC

PROB40 TEMPO 2400/2406 20015G25KT

Temporary - 40% Likelihood

Temporary - 40% Likelihood during this time.

Wind
  • 200° at 15 KTS
  • {Gusting to 25 KTS

Feb-24@
09:00 UTC

Feb-24 @ 09:00 UTC

Feb-24@
15:00 UTC

Feb-24 @ 15:00 UTC

BECMG 2409/2411 23015KT -SHRA SCT015 BKN020 OVC050

Becoming

Becoming Conditions expected by Sun, Feb 24, 2019 @ 11:00 UTC

Wind
  • 230° at 15 KTS
Conditions
Light Rain
Cloud Levels
  • Scattered at 1,500' AGL
  • Broken at 2,000' AGL
  • Overcast at 5,000' AGL

Feb-24@
15:00 UTC

Feb-24 @ 15:00 UTC

Feb-24@
23:00 UTC

Feb-24 @ 23:00 UTC

BECMG 2415/2417 18010KT -RA OVC015

Becoming

Becoming Conditions expected by Sun, Feb 24, 2019 @ 17:00 UTC

Wind
  • 180° at 10 KTS
Conditions
Light Rain
Cloud Levels
  • Overcast at 1,500' AGL

Feb-24@
16:00 UTC

Feb-24 @ 16:00 UTC

Feb-24@
20:00 UTC

Feb-24 @ 20:00 UTC

PROB40 TEMPO 2416/2420 5000 RA

Temporary - 40% Likelihood

Temporary - 40% Likelihood during this time.

Conditions
Rain

Feb-24@
23:00 UTC

Feb-24 @ 23:00 UTC

Feb-25@
00:00 UTC

Feb-25 @ 00:00 UTC

BECMG 2423/2424 NSW SCT020

Becoming

Becoming Conditions expected by Mon, Feb 25, 2019 @ 00:00 UTC

Wind
  • 180° at 10 KTS
Conditions
No significant weather
Cloud Levels
  • Scattered at 2,000' AGL